Los Pachecos, New Mexico
Current Conditions -  °F | °C
As of 12:53 AM on Saturday 25 Oct 2014 (Local Time) from KLVS Reporting Station
Clear Clear  
Wind Chill: 44°   Ceiling: Unl
Heat Index: 44°   Visibility: 10mi
Dew Point: 23°   Wind: 0mph
Humidity: 43%   Direction: NA
Pressure: 30.32"   Gusts: NA
Location:  35.582°N, 105.558°W
Report Text: KLVS 250653Z AUTO 00000KT 10SM CLR 07/M05 A3032 RMK AO2 SLP178 T00671050 402610033
Loading
Personal Weather Stations






























Interactive Weather Map
Tropical Storm Tracking
New forecast layout! Learn more

10-Day Weather Forecast

Advertisements
Track Severe Weather on mobile